sensor_id;sensor_type;location;lat;lon;timestamp;temperature;humidity
11989;DHT22;6054;50.966;7.094;2023-02-03T00:02:16;16.00;57.90
11989;DHT22;6054;50.966;7.094;2023-02-03T00:04:42;16.10;57.60
11989;DHT22;6054;50.966;7.094;2023-02-03T00:07:11;15.90;57.30
11989;DHT22;6054;50.966;7.094;2023-02-03T00:09:39;16.00;57.70
11989;DHT22;6054;50.966;7.094;2023-02-03T00:12:06;16.00;57.50
11989;DHT22;6054;50.966;7.094;2023-02-03T00:14:34;16.00;57.80
11989;DHT22;6054;50.966;7.094;2023-02-03T00:17:02;16.00;57.50
11989;DHT22;6054;50.966;7.094;2023-02-03T00:19:29;16.00;57.70
11989;DHT22;6054;50.966;7.094;2023-02-03T00:21:55;16.00;58.00
11989;DHT22;6054;50.966;7.094;2023-02-03T00:24:24;16.00;57.90
11989;DHT22;6054;50.966;7.094;2023-02-03T00:26:50;16.00;57.80
11989;DHT22;6054;50.966;7.094;2023-02-03T00:29:17;16.00;57.30
11989;DHT22;6054;50.966;7.094;2023-02-03T00:31:48;16.00;57.60
11989;DHT22;6054;50.966;7.094;2023-02-03T00:34:14;16.10;57.40
11989;DHT22;6054;50.966;7.094;2023-02-03T00:36:41;16.10;57.70
11989;DHT22;6054;50.966;7.094;2023-02-03T00:39:08;16.00;57.20
11989;DHT22;6054;50.966;7.094;2023-02-03T00:41:36;16.10;57.70
11989;DHT22;6054;50.966;7.094;2023-02-03T00:44:03;16.10;58.20
11989;DHT22;6054;50.966;7.094;2023-02-03T00:46:30;16.10;57.50
11989;DHT22;6054;50.966;7.094;2023-02-03T00:48:56;16.10;57.20
11989;DHT22;6054;50.966;7.094;2023-02-03T00:51:23;16.10;57.30
11989;DHT22;6054;50.966;7.094;2023-02-03T00:53:50;16.10;57.20
11989;DHT22;6054;50.966;7.094;2023-02-03T00:56:16;16.10;57.40
11989;DHT22;6054;50.966;7.094;2023-02-03T00:58:45;16.10;57.30
11989;DHT22;6054;50.966;7.094;2023-02-03T01:01:11;16.10;57.50
11989;DHT22;6054;50.966;7.094;2023-02-03T01:03:39;16.10;57.50
11989;DHT22;6054;50.966;7.094;2023-02-03T01:06:10;16.10;57.10
11989;DHT22;6054;50.966;7.094;2023-02-03T01:08:37;16.20;57.60
11989;DHT22;6054;50.966;7.094;2023-02-03T01:11:08;16.10;56.70
11989;DHT22;6054;50.966;7.094;2023-02-03T01:13:35;16.10;57.20
11989;DHT22;6054;50.966;7.094;2023-02-03T01:16:06;16.10;57.30
11989;DHT22;6054;50.966;7.094;2023-02-03T01:18:33;16.10;57.20
11989;DHT22;6054;50.966;7.094;2023-02-03T01:21:04;16.10;56.80
11989;DHT22;6054;50.966;7.094;2023-02-03T01:23:31;16.10;57.30
11989;DHT22;6054;50.966;7.094;2023-02-03T01:26:01;16.10;56.60
11989;DHT22;6054;50.966;7.094;2023-02-03T01:28:28;16.30;57.50
11989;DHT22;6054;50.966;7.094;2023-02-03T01:30:55;16.10;57.00
11989;DHT22;6054;50.966;7.094;2023-02-03T01:33:23;16.10;56.10
11989;DHT22;6054;50.966;7.094;2023-02-03T01:35:50;16.20;56.30
11989;DHT22;6054;50.966;7.094;2023-02-03T01:38:16;16.20;56.70
11989;DHT22;6054;50.966;7.094;2023-02-03T01:40:44;16.20;56.50
11989;DHT22;6054;50.966;7.094;2023-02-03T01:43:10;16.20;56.60
11989;DHT22;6054;50.966;7.094;2023-02-03T01:45:39;16.20;56.60
11989;DHT22;6054;50.966;7.094;2023-02-03T01:48:07;16.20;56.70
11989;DHT22;6054;50.966;7.094;2023-02-03T01:50:36;16.20;56.60
11989;DHT22;6054;50.966;7.094;2023-02-03T01:53:07;16.20;56.30
11989;DHT22;6054;50.966;7.094;2023-02-03T01:55:39;16.20;56.60
11989;DHT22;6054;50.966;7.094;2023-02-03T01:58:10;16.20;56.90
11989;DHT22;6054;50.966;7.094;2023-02-03T02:00:38;16.20;56.30
11989;DHT22;6054;50.966;7.094;2023-02-03T02:03:06;16.20;56.10
11989;DHT22;6054;50.966;7.094;2023-02-03T02:05:38;16.20;56.60
11989;DHT22;6054;50.966;7.094;2023-02-03T02:08:08;16.20;56.30
11989;DHT22;6054;50.966;7.094;2023-02-03T02:10:35;16.20;56.60
11989;DHT22;6054;50.966;7.094;2023-02-03T02:13:02;16.20;55.90
11989;DHT22;6054;50.966;7.094;2023-02-03T02:15:38;16.20;56.60
11989;DHT22;6054;50.966;7.094;2023-02-03T02:18:19;16.20;56.60
11989;DHT22;6054;50.966;7.094;2023-02-03T02:27:05;16.20;56.20
11989;DHT22;6054;50.966;7.094;2023-02-03T02:30:07;16.20;56.00
11989;DHT22;6054;50.966;7.094;2023-02-03T02:32:46;16.20;56.10
11989;DHT22;6054;50.966;7.094;2023-02-03T02:35:19;16.20;55.90
11989;DHT22;6054;50.966;7.094;2023-02-03T02:37:54;16.30;56.00
11989;DHT22;6054;50.966;7.094;2023-02-03T02:40:32;16.20;55.90
11989;DHT22;6054;50.966;7.094;2023-02-03T02:43:05;16.20;56.20
11989;DHT22;6054;50.966;7.094;2023-02-03T02:45:40;16.30;56.30
11989;DHT22;6054;50.966;7.094;2023-02-03T02:48:14;16.30;56.20
11989;DHT22;6054;50.966;7.094;2023-02-03T02:50:46;16.30;56.40
11989;DHT22;6054;50.966;7.094;2023-02-03T02:53:15;16.30;56.10
11989;DHT22;6054;50.966;7.094;2023-02-03T02:55:43;16.30;55.90
11989;DHT22;6054;50.966;7.094;2023-02-03T02:58:14;16.30;55.90
11989;DHT22;6054;50.966;7.094;2023-02-03T03:00:42;16.50;56.10
11989;DHT22;6054;50.966;7.094;2023-02-03T03:03:15;16.30;55.80
11989;DHT22;6054;50.966;7.094;2023-02-03T03:05:45;16.30;55.80
11989;DHT22;6054;50.966;7.094;2023-02-03T03:08:15;16.30;55.40
11989;DHT22;6054;50.966;7.094;2023-02-03T03:10:44;16.30;55.40
11989;DHT22;6054;50.966;7.094;2023-02-03T03:13:15;16.30;55.70
11989;DHT22;6054;50.966;7.094;2023-02-03T03:15:44;16.30;55.70
11989;DHT22;6054;50.966;7.094;2023-02-03T03:18:16;16.30;55.40
11989;DHT22;6054;50.966;7.094;2023-02-03T03:20:46;16.30;55.30
11989;DHT22;6054;50.966;7.094;2023-02-03T03:23:19;16.30;55.40
11989;DHT22;6054;50.966;7.094;2023-02-03T03:25:53;16.30;55.70
11989;DHT22;6054;50.966;7.094;2023-02-03T03:28:24;16.20;55.50
11989;DHT22;6054;50.966;7.094;2023-02-03T03:30:52;16.20;55.70
11989;DHT22;6054;50.966;7.094;2023-02-03T03:33:21;16.20;55.40
11989;DHT22;6054;50.966;7.094;2023-02-03T03:35:54;16.20;55.40
11989;DHT22;6054;50.966;7.094;2023-02-03T03:38:29;16.30;55.20
11989;DHT22;6054;50.966;7.094;2023-02-03T03:41:02;16.30;55.40
11989;DHT22;6054;50.966;7.094;2023-02-03T03:43:31;16.20;55.10
11989;DHT22;6054;50.966;7.094;2023-02-03T03:46:05;16.30;55.40
11989;DHT22;6054;50.966;7.094;2023-02-03T03:48:39;16.30;55.30
11989;DHT22;6054;50.966;7.094;2023-02-03T03:51:10;16.30;55.50
11989;DHT22;6054;50.966;7.094;2023-02-03T03:53:40;16.30;55.30
11989;DHT22;6054;50.966;7.094;2023-02-03T03:56:11;16.30;55.40
11989;DHT22;6054;50.966;7.094;2023-02-03T03:58:42;16.30;55.40
11989;DHT22;6054;50.966;7.094;2023-02-03T04:01:12;16.30;55.20
11989;DHT22;6054;50.966;7.094;2023-02-03T04:03:44;16.30;55.30
11989;DHT22;6054;50.966;7.094;2023-02-03T04:06:12;16.30;55.50
11989;DHT22;6054;50.966;7.094;2023-02-03T04:08:39;16.30;55.00
11989;DHT22;6054;50.966;7.094;2023-02-03T04:11:06;16.50;55.20
11989;DHT22;6054;50.966;7.094;2023-02-03T04:13:33;16.30;55.20
11989;DHT22;6054;50.966;7.094;2023-02-03T04:16:00;16.30;54.40
11989;DHT22;6054;50.966;7.094;2023-02-03T04:18:26;16.30;54.60
11989;DHT22;6054;50.966;7.094;2023-02-03T04:20:54;16.30;54.70
11989;DHT22;6054;50.966;7.094;2023-02-03T04:23:21;16.30;54.80
11989;DHT22;6054;50.966;7.094;2023-02-03T04:25:48;16.40;54.80
11989;DHT22;6054;50.966;7.094;2023-02-03T04:28:14;16.40;54.90
11989;DHT22;6054;50.966;7.094;2023-02-03T04:30:41;16.30;54.70
11989;DHT22;6054;50.966;7.094;2023-02-03T04:33:08;16.40;54.40
11989;DHT22;6054;50.966;7.094;2023-02-03T04:35:35;16.40;54.20
11989;DHT22;6054;50.966;7.094;2023-02-03T04:38:03;16.40;54.30
11989;DHT22;6054;50.966;7.094;2023-02-03T04:40:30;16.40;54.40
11989;DHT22;6054;50.966;7.094;2023-02-03T04:42:56;16.40;54.20
11989;DHT22;6054;50.966;7.094;2023-02-03T04:45:23;16.40;54.70
11989;DHT22;6054;50.966;7.094;2023-02-03T04:47:51;16.40;54.60
11989;DHT22;6054;50.966;7.094;2023-02-03T04:50:18;16.40;54.80
11989;DHT22;6054;50.966;7.094;2023-02-03T04:52:45;16.40;54.40
11989;DHT22;6054;50.966;7.094;2023-02-03T04:55:13;16.40;54.60
11989;DHT22;6054;50.966;7.094;2023-02-03T04:57:40;16.40;54.20
11989;DHT22;6054;50.966;7.094;2023-02-03T05:00:08;16.40;54.50
11989;DHT22;6054;50.966;7.094;2023-02-03T05:02:35;16.40;54.70
11989;DHT22;6054;50.966;7.094;2023-02-03T05:05:02;16.40;54.40
11989;DHT22;6054;50.966;7.094;2023-02-03T05:07:28;16.40;54.50
11989;DHT22;6054;50.966;7.094;2023-02-03T05:09:55;16.40;53.90
11989;DHT22;6054;50.966;7.094;2023-02-03T05:12:23;16.40;53.90
11989;DHT22;6054;50.966;7.094;2023-02-03T05:14:50;16.40;53.90
11989;DHT22;6054;50.966;7.094;2023-02-03T05:17:17;16.40;54.10
11989;DHT22;6054;50.966;7.094;2023-02-03T05:19:43;16.40;53.90
11989;DHT22;6054;50.966;7.094;2023-02-03T05:22:10;16.40;54.20
11989;DHT22;6054;50.966;7.094;2023-02-03T05:24:37;16.40;54.60
11989;DHT22;6054;50.966;7.094;2023-02-03T05:27:04;16.40;54.40
11989;DHT22;6054;50.966;7.094;2023-02-03T05:29:32;16.40;54.40
11989;DHT22;6054;50.966;7.094;2023-02-03T05:31:59;16.20;54.30
11989;DHT22;6054;50.966;7.094;2023-02-03T05:34:26;16.40;54.60
11989;DHT22;6054;50.966;7.094;2023-02-03T05:36:52;16.40;54.20
11989;DHT22;6054;50.966;7.094;2023-02-03T05:39:19;16.40;54.40
11989;DHT22;6054;50.966;7.094;2023-02-03T05:41:46;16.40;54.40
11989;DHT22;6054;50.966;7.094;2023-02-03T05:44:18;16.40;55.10
11989;DHT22;6054;50.966;7.094;2023-02-03T05:46:46;16.40;54.50
11989;DHT22;6054;50.966;7.094;2023-02-03T05:49:13;16.40;54.60
11989;DHT22;6054;50.966;7.094;2023-02-03T05:51:41;16.40;54.50
11989;DHT22;6054;50.966;7.094;2023-02-03T05:54:08;16.40;54.30
11989;DHT22;6054;50.966;7.094;2023-02-03T05:56:35;16.40;54.50
11989;DHT22;6054;50.966;7.094;2023-02-03T05:59:02;16.40;54.10
11989;DHT22;6054;50.966;7.094;2023-02-03T06:01:29;16.40;54.60
11989;DHT22;6054;50.966;7.094;2023-02-03T06:03:58;16.60;54.70
11989;DHT22;6054;50.966;7.094;2023-02-03T06:06:25;16.40;54.30
11989;DHT22;6054;50.966;7.094;2023-02-03T06:08:57;16.40;53.80
11989;DHT22;6054;50.966;7.094;2023-02-03T06:11:24;16.40;53.70
11989;DHT22;6054;50.966;7.094;2023-02-03T06:13:51;16.40;53.80
11989;DHT22;6054;50.966;7.094;2023-02-03T06:16:17;16.40;53.20
11989;DHT22;6054;50.966;7.094;2023-02-03T06:18:44;16.40;53.40
11989;DHT22;6054;50.966;7.094;2023-02-03T06:21:12;16.40;53.20
11989;DHT22;6054;50.966;7.094;2023-02-03T06:23:39;16.40;53.40
11989;DHT22;6054;50.966;7.094;2023-02-03T06:26:06;16.40;53.30
11989;DHT22;6054;50.966;7.094;2023-02-03T06:28:32;16.40;53.30
11989;DHT22;6054;50.966;7.094;2023-02-03T06:30:59;16.40;53.50
11989;DHT22;6054;50.966;7.094;2023-02-03T06:33:26;16.40;53.50
11989;DHT22;6054;50.966;7.094;2023-02-03T06:35:53;16.40;53.40
11989;DHT22;6054;50.966;7.094;2023-02-03T06:38:21;16.40;53.60
11989;DHT22;6054;50.966;7.094;2023-02-03T06:40:48;16.40;53.50
11989;DHT22;6054;50.966;7.094;2023-02-03T06:43:16;16.40;53.20
11989;DHT22;6054;50.966;7.094;2023-02-03T06:45:44;16.40;53.20
11989;DHT22;6054;50.966;7.094;2023-02-03T06:48:12;16.40;53.40
11989;DHT22;6054;50.966;7.094;2023-02-03T06:50:39;16.50;53.80
11989;DHT22;6054;50.966;7.094;2023-02-03T06:53:06;16.50;53.50
11989;DHT22;6054;50.966;7.094;2023-02-03T06:55:34;16.50;53.80
11989;DHT22;6054;50.966;7.094;2023-02-03T06:58:01;16.50;53.40
11989;DHT22;6054;50.966;7.094;2023-02-03T07:00:28;16.50;53.50
11989;DHT22;6054;50.966;7.094;2023-02-03T07:02:56;16.50;53.10
11989;DHT22;6054;50.966;7.094;2023-02-03T07:05:24;16.50;53.50
11989;DHT22;6054;50.966;7.094;2023-02-03T07:07:52;16.50;53.60
11989;DHT22;6054;50.966;7.094;2023-02-03T07:10:19;16.50;53.20
11989;DHT22;6054;50.966;7.094;2023-02-03T07:12:47;16.50;52.90
11989;DHT22;6054;50.966;7.094;2023-02-03T07:15:16;16.60;52.80
11989;DHT22;6054;50.966;7.094;2023-02-03T07:17:43;16.50;53.00
11989;DHT22;6054;50.966;7.094;2023-02-03T07:20:13;16.50;52.70
11989;DHT22;6054;50.966;7.094;2023-02-03T07:22:39;16.50;52.80
11989;DHT22;6054;50.966;7.094;2023-02-03T07:25:08;16.50;52.70
11989;DHT22;6054;50.966;7.094;2023-02-03T07:27:35;16.50;53.10
11989;DHT22;6054;50.966;7.094;2023-02-03T07:30:04;16.40;52.90
11989;DHT22;6054;50.966;7.094;2023-02-03T07:32:31;16.50;53.00
11989;DHT22;6054;50.966;7.094;2023-02-03T07:34:57;16.50;53.00
11989;DHT22;6054;50.966;7.094;2023-02-03T07:37:25;16.50;53.20
11989;DHT22;6054;50.966;7.094;2023-02-03T07:39:52;16.60;53.20
11989;DHT22;6054;50.966;7.094;2023-02-03T07:42:19;16.50;53.10
11989;DHT22;6054;50.966;7.094;2023-02-03T07:44:46;16.50;52.70
11989;DHT22;6054;50.966;7.094;2023-02-03T07:47:14;16.50;52.90
11989;DHT22;6054;50.966;7.094;2023-02-03T07:49:41;16.50;52.70
11989;DHT22;6054;50.966;7.094;2023-02-03T07:52:08;16.50;52.60
11989;DHT22;6054;50.966;7.094;2023-02-03T07:54:35;16.50;52.50
11989;DHT22;6054;50.966;7.094;2023-02-03T07:57:01;16.50;52.50
11989;DHT22;6054;50.966;7.094;2023-02-03T07:59:28;16.50;52.20
11989;DHT22;6054;50.966;7.094;2023-02-03T08:01:55;16.50;52.40
11989;DHT22;6054;50.966;7.094;2023-02-03T08:04:23;16.50;52.80
11989;DHT22;6054;50.966;7.094;2023-02-03T08:06:50;16.50;52.90
11989;DHT22;6054;50.966;7.094;2023-02-03T08:09:16;16.50;52.90
11989;DHT22;6054;50.966;7.094;2023-02-03T08:11:43;16.50;52.70
11989;DHT22;6054;50.966;7.094;2023-02-03T08:14:10;16.50;52.60
11989;DHT22;6054;50.966;7.094;2023-02-03T08:16:37;16.50;52.50
11989;DHT22;6054;50.966;7.094;2023-02-03T08:19:03;16.50;52.30
11989;DHT22;6054;50.966;7.094;2023-02-03T08:21:31;16.50;52.40
11989;DHT22;6054;50.966;7.094;2023-02-03T08:23:58;16.50;52.90
11989;DHT22;6054;50.966;7.094;2023-02-03T08:26:25;16.60;52.30
11989;DHT22;6054;50.966;7.094;2023-02-03T08:28:52;16.60;52.30
11989;DHT22;6054;50.966;7.094;2023-02-03T08:31:18;16.60;52.40
11989;DHT22;6054;50.966;7.094;2023-02-03T08:33:45;16.60;52.20
11989;DHT22;6054;50.966;7.094;2023-02-03T08:36:12;16.60;52.00
11989;DHT22;6054;50.966;7.094;2023-02-03T08:38:40;16.60;52.10
11989;DHT22;6054;50.966;7.094;2023-02-03T08:41:08;16.60;52.30
11989;DHT22;6054;50.966;7.094;2023-02-03T08:43:35;16.60;52.30
11989;DHT22;6054;50.966;7.094;2023-02-03T08:46:03;16.60;52.10
11989;DHT22;6054;50.966;7.094;2023-02-03T08:48:31;16.60;52.10
11989;DHT22;6054;50.966;7.094;2023-02-03T08:50:58;16.60;52.10
11989;DHT22;6054;50.966;7.094;2023-02-03T08:53:25;16.50;52.20
11989;DHT22;6054;50.966;7.094;2023-02-03T08:55:54;16.50;52.40
11989;DHT22;6054;50.966;7.094;2023-02-03T08:58:21;16.50;52.20
11989;DHT22;6054;50.966;7.094;2023-02-03T09:00:48;16.50;52.30
11989;DHT22;6054;50.966;7.094;2023-02-03T09:03:17;16.50;52.30
11989;DHT22;6054;50.966;7.094;2023-02-03T09:05:44;16.50;52.10
11989;DHT22;6054;50.966;7.094;2023-02-03T09:08:11;16.50;52.40
11989;DHT22;6054;50.966;7.094;2023-02-03T09:10:38;16.40;52.20
11989;DHT22;6054;50.966;7.094;2023-02-03T09:13:06;16.40;52.50
11989;DHT22;6054;50.966;7.094;2023-02-03T09:15:32;16.40;52.60
11989;DHT22;6054;50.966;7.094;2023-02-03T09:17:59;16.50;52.80
11989;DHT22;6054;50.966;7.094;2023-02-03T09:20:26;16.50;52.90
11989;DHT22;6054;50.966;7.094;2023-02-03T09:22:53;16.50;52.70
11989;DHT22;6054;50.966;7.094;2023-02-03T09:25:20;16.50;52.60
11989;DHT22;6054;50.966;7.094;2023-02-03T09:27:47;16.50;52.60
11989;DHT22;6054;50.966;7.094;2023-02-03T09:30:15;16.60;52.80
11989;DHT22;6054;50.966;7.094;2023-02-03T09:32:42;16.50;53.00
11989;DHT22;6054;50.966;7.094;2023-02-03T09:35:13;16.50;52.80
11989;DHT22;6054;50.966;7.094;2023-02-03T09:37:40;16.50;52.60
11989;DHT22;6054;50.966;7.094;2023-02-03T09:40:09;16.50;52.80
11989;DHT22;6054;50.966;7.094;2023-02-03T09:43:01;16.50;53.00
11989;DHT22;6054;50.966;7.094;2023-02-03T09:45:32;16.50;53.20
11989;DHT22;6054;50.966;7.094;2023-02-03T09:48:03;16.50;52.70
11989;DHT22;6054;50.966;7.094;2023-02-03T09:50:33;16.60;52.90
11989;DHT22;6054;50.966;7.094;2023-02-03T09:53:06;16.50;52.80
11989;DHT22;6054;50.966;7.094;2023-02-03T09:55:37;16.50;53.00
11989;DHT22;6054;50.966;7.094;2023-02-03T09:58:08;16.50;53.00
11989;DHT22;6054;50.966;7.094;2023-02-03T10:00:41;16.40;53.20
11989;DHT22;6054;50.966;7.094;2023-02-03T10:03:15;16.40;53.10
11989;DHT22;6054;50.966;7.094;2023-02-03T10:06:04;16.40;53.40
11989;DHT22;6054;50.966;7.094;2023-02-03T10:08:47;16.40;53.50
11989;DHT22;6054;50.966;7.094;2023-02-03T10:11:22;16.50;53.40
11989;DHT22;6054;50.966;7.094;2023-02-03T10:14:03;16.40;53.40
11989;DHT22;6054;50.966;7.094;2023-02-03T10:16:42;16.40;53.60
11989;DHT22;6054;50.966;7.094;2023-02-03T10:19:16;16.40;53.90
11989;DHT22;6054;50.966;7.094;2023-02-03T10:21:48;16.40;54.00
11989;DHT22;6054;50.966;7.094;2023-02-03T10:24:21;16.40;53.90
11989;DHT22;6054;50.966;7.094;2023-02-03T10:26:50;16.40;54.10
11989;DHT22;6054;50.966;7.094;2023-02-03T10:29:19;16.40;54.00
11989;DHT22;6054;50.966;7.094;2023-02-03T10:31:48;16.40;54.30
11989;DHT22;6054;50.966;7.094;2023-02-03T10:34:16;16.40;54.20
11989;DHT22;6054;50.966;7.094;2023-02-03T10:36:52;16.40;54.60
11989;DHT22;6054;50.966;7.094;2023-02-03T10:39:26;16.40;54.80
11989;DHT22;6054;50.966;7.094;2023-02-03T10:41:55;16.40;54.90
11989;DHT22;6054;50.966;7.094;2023-02-03T10:44:26;16.40;54.60
11989;DHT22;6054;50.966;7.094;2023-02-03T10:46:57;16.30;54.90
11989;DHT22;6054;50.966;7.094;2023-02-03T10:49:25;16.30;54.70
11989;DHT22;6054;50.966;7.094;2023-02-03T10:51:55;16.30;55.20
11989;DHT22;6054;50.966;7.094;2023-02-03T10:54:29;16.30;55.10
11989;DHT22;6054;50.966;7.094;2023-02-03T10:57:01;16.30;55.50
11989;DHT22;6054;50.966;7.094;2023-02-03T10:59:32;16.30;55.50
11989;DHT22;6054;50.966;7.094;2023-02-03T11:02:06;16.20;55.60
11989;DHT22;6054;50.966;7.094;2023-02-03T11:04:33;16.30;55.90
11989;DHT22;6054;50.966;7.094;2023-02-03T11:07:02;16.30;55.60
11989;DHT22;6054;50.966;7.094;2023-02-03T11:09:32;16.30;55.90
11989;DHT22;6054;50.966;7.094;2023-02-03T11:12:09;16.30;56.00
11989;DHT22;6054;50.966;7.094;2023-02-03T11:14:38;16.30;56.10
11989;DHT22;6054;50.966;7.094;2023-02-03T11:17:11;16.30;56.10
11989;DHT22;6054;50.966;7.094;2023-02-03T11:19:42;16.30;56.10
11989;DHT22;6054;50.966;7.094;2023-02-03T11:22:09;16.30;56.20
11989;DHT22;6054;50.966;7.094;2023-02-03T11:24:38;16.40;56.10
11989;DHT22;6054;50.966;7.094;2023-02-03T11:27:09;16.30;56.00
11989;DHT22;6054;50.966;7.094;2023-02-03T11:29:40;16.30;56.00
11989;DHT22;6054;50.966;7.094;2023-02-03T11:32:16;16.30;55.90
11989;DHT22;6054;50.966;7.094;2023-02-03T11:34:48;16.30;56.50
11989;DHT22;6054;50.966;7.094;2023-02-03T11:37:28;16.40;55.90
11989;DHT22;6054;50.966;7.094;2023-02-03T11:40:12;16.30;55.80
11989;DHT22;6054;50.966;7.094;2023-02-03T11:42:59;16.30;56.00
11989;DHT22;6054;50.966;7.094;2023-02-03T11:45:28;16.40;56.10
11989;DHT22;6054;50.966;7.094;2023-02-03T11:48:01;16.40;55.90
11989;DHT22;6054;50.966;7.094;2023-02-03T11:50:30;16.40;55.90
11989;DHT22;6054;50.966;7.094;2023-02-03T11:53:17;16.40;56.00
11989;DHT22;6054;50.966;7.094;2023-02-03T11:56:04;16.50;56.20
11989;DHT22;6054;50.966;7.094;2023-02-03T11:59:00;16.50;56.00
11989;DHT22;6054;50.966;7.094;2023-02-03T12:01:48;16.50;55.90
11989;DHT22;6054;50.966;7.094;2023-02-03T12:04:40;16.50;55.90
11989;DHT22;6054;50.966;7.094;2023-02-03T12:07:30;16.50;55.90
11989;DHT22;6054;50.966;7.094;2023-02-03T12:10:06;16.60;56.00
11989;DHT22;6054;50.966;7.094;2023-02-03T12:12:45;16.60;55.70
11989;DHT22;6054;50.966;7.094;2023-02-03T12:15:27;16.50;55.80
11989;DHT22;6054;50.966;7.094;2023-02-03T12:18:07;16.50;55.70
11989;DHT22;6054;50.966;7.094;2023-02-03T12:20:47;16.60;55.70
11989;DHT22;6054;50.966;7.094;2023-02-03T12:23:24;16.60;55.80
11989;DHT22;6054;50.966;7.094;2023-02-03T12:26:04;16.60;55.70
11989;DHT22;6054;50.966;7.094;2023-02-03T12:28:44;16.60;55.80
11989;DHT22;6054;50.966;7.094;2023-02-03T12:31:16;16.60;55.80
11989;DHT22;6054;50.966;7.094;2023-02-03T12:33:48;16.80;55.70
11989;DHT22;6054;50.966;7.094;2023-02-03T12:36:22;16.60;55.50
11989;DHT22;6054;50.966;7.094;2023-02-03T12:38:56;16.70;55.40
11989;DHT22;6054;50.966;7.094;2023-02-03T12:41:28;16.70;55.40
11989;DHT22;6054;50.966;7.094;2023-02-03T12:43:59;16.70;55.40
11989;DHT22;6054;50.966;7.094;2023-02-03T12:46:30;16.70;55.30
11989;DHT22;6054;50.966;7.094;2023-02-03T12:49:01;16.70;55.40
11989;DHT22;6054;50.966;7.094;2023-02-03T12:51:35;16.70;55.40
11989;DHT22;6054;50.966;7.094;2023-02-03T12:54:09;16.80;55.10
11989;DHT22;6054;50.966;7.094;2023-02-03T12:56:39;16.80;55.30
11989;DHT22;6054;50.966;7.094;2023-02-03T12:59:12;16.80;55.30
11989;DHT22;6054;50.966;7.094;2023-02-03T13:01:46;16.80;55.30
11989;DHT22;6054;50.966;7.094;2023-02-03T13:04:20;16.80;55.80
11989;DHT22;6054;50.966;7.094;2023-02-03T13:06:57;16.80;55.20
11989;DHT22;6054;50.966;7.094;2023-02-03T13:09:32;16.80;55.30
11989;DHT22;6054;50.966;7.094;2023-02-03T13:12:05;16.80;55.30
11989;DHT22;6054;50.966;7.094;2023-02-03T13:14:38;16.80;55.10
11989;DHT22;6054;50.966;7.094;2023-02-03T13:17:12;16.80;55.30
11989;DHT22;6054;50.966;7.094;2023-02-03T13:19:43;16.80;55.50
11989;DHT22;6054;50.966;7.094;2023-02-03T13:22:13;16.80;55.30
11989;DHT22;6054;50.966;7.094;2023-02-03T13:24:44;16.80;55.40
11989;DHT22;6054;50.966;7.094;2023-02-03T13:27:34;16.80;55.30
11989;DHT22;6054;50.966;7.094;2023-02-03T13:30:17;16.80;55.70
11989;DHT22;6054;50.966;7.094;2023-02-03T13:35:54;16.80;56.00
11989;DHT22;6054;50.966;7.094;2023-02-03T13:38:41;16.70;56.10
11989;DHT22;6054;50.966;7.094;2023-02-03T13:41:18;16.70;56.30
11989;DHT22;6054;50.966;7.094;2023-02-03T13:43:49;16.70;56.10
11989;DHT22;6054;50.966;7.094;2023-02-03T13:46:22;16.60;56.50
11989;DHT22;6054;50.966;7.094;2023-02-03T13:48:50;16.60;56.50
11989;DHT22;6054;50.966;7.094;2023-02-03T13:51:21;16.60;56.70
11989;DHT22;6054;50.966;7.094;2023-02-03T13:53:57;16.60;56.70
11989;DHT22;6054;50.966;7.094;2023-02-03T13:56:26;16.60;56.80
11989;DHT22;6054;50.966;7.094;2023-02-03T13:59:04;16.60;56.70
11989;DHT22;6054;50.966;7.094;2023-02-03T14:01:34;16.60;56.70
11989;DHT22;6054;50.966;7.094;2023-02-03T14:04:04;16.60;56.80
11989;DHT22;6054;50.966;7.094;2023-02-03T14:06:56;16.70;56.80
11989;DHT22;6054;50.966;7.094;2023-02-03T14:09:52;16.60;57.20
11989;DHT22;6054;50.966;7.094;2023-02-03T14:12:33;16.60;57.20
11989;DHT22;6054;50.966;7.094;2023-02-03T14:15:16;16.80;56.70
11989;DHT22;6054;50.966;7.094;2023-02-03T14:23:46;16.80;56.40
11989;DHT22;6054;50.966;7.094;2023-02-03T14:26:21;16.80;56.30
11989;DHT22;6054;50.966;7.094;2023-02-03T14:28:49;16.90;56.60
11989;DHT22;6054;50.966;7.094;2023-02-03T14:31:18;16.90;56.40
11989;DHT22;6054;50.966;7.094;2023-02-03T14:36:43;16.90;56.40
11989;DHT22;6054;50.966;7.094;2023-02-03T14:39:39;16.90;56.40
11989;DHT22;6054;50.966;7.094;2023-02-03T14:42:19;16.90;56.10
11989;DHT22;6054;50.966;7.094;2023-02-03T14:45:01;16.90;56.20
11989;DHT22;6054;50.966;7.094;2023-02-03T14:47:42;16.90;56.30
11989;DHT22;6054;50.966;7.094;2023-02-03T14:50:22;16.90;56.30
11989;DHT22;6054;50.966;7.094;2023-02-03T14:53:04;16.90;56.20
11989;DHT22;6054;50.966;7.094;2023-02-03T14:55:45;17.30;56.10
11989;DHT22;6054;50.966;7.094;2023-02-03T14:58:24;17.00;55.70
11989;DHT22;6054;50.966;7.094;2023-02-03T15:00:53;17.00;55.60
11989;DHT22;6054;50.966;7.094;2023-02-03T15:03:25;17.10;55.10
11989;DHT22;6054;50.966;7.094;2023-02-03T15:05:57;17.10;55.30
11989;DHT22;6054;50.966;7.094;2023-02-03T15:08:45;17.20;55.20
11989;DHT22;6054;50.966;7.094;2023-02-03T15:11:29;17.10;55.10
11989;DHT22;6054;50.966;7.094;2023-02-03T15:14:18;17.20;55.30
11989;DHT22;6054;50.966;7.094;2023-02-03T15:16:46;17.20;55.00
11989;DHT22;6054;50.966;7.094;2023-02-03T15:19:15;17.20;55.60
11989;DHT22;6054;50.966;7.094;2023-02-03T15:21:43;17.20;54.70
11989;DHT22;6054;50.966;7.094;2023-02-03T15:24:13;17.20;54.80
11989;DHT22;6054;50.966;7.094;2023-02-03T15:26:45;17.20;54.60
11989;DHT22;6054;50.966;7.094;2023-02-03T15:29:25;17.20;54.30
11989;DHT22;6054;50.966;7.094;2023-02-03T15:31:59;17.30;54.60
11989;DHT22;6054;50.966;7.094;2023-02-03T15:34:30;17.30;54.50
11989;DHT22;6054;50.966;7.094;2023-02-03T15:37:01;17.30;54.40
11989;DHT22;6054;50.966;7.094;2023-02-03T15:39:44;17.30;54.30
11989;DHT22;6054;50.966;7.094;2023-02-03T15:42:18;17.30;54.20
11989;DHT22;6054;50.966;7.094;2023-02-03T15:44:51;17.20;54.30
11989;DHT22;6054;50.966;7.094;2023-02-03T15:47:24;17.20;54.60
11989;DHT22;6054;50.966;7.094;2023-02-03T15:49:59;17.20;54.80
11989;DHT22;6054;50.966;7.094;2023-02-03T15:52:31;17.10;55.10
11989;DHT22;6054;50.966;7.094;2023-02-03T15:55:05;17.10;55.40
11989;DHT22;6054;50.966;7.094;2023-02-03T15:57:33;17.00;55.70
11989;DHT22;6054;50.966;7.094;2023-02-03T16:00:09;16.90;55.80
11989;DHT22;6054;50.966;7.094;2023-02-03T16:02:41;16.80;56.20
11989;DHT22;6054;50.966;7.094;2023-02-03T16:05:20;16.80;56.40
11989;DHT22;6054;50.966;7.094;2023-02-03T16:07:48;16.70;56.50
11989;DHT22;6054;50.966;7.094;2023-02-03T16:10:26;16.70;56.20
11989;DHT22;6054;50.966;7.094;2023-02-03T16:13:16;16.60;56.90
11989;DHT22;6054;50.966;7.094;2023-02-03T16:15:59;16.50;56.90
11989;DHT22;6054;50.966;7.094;2023-02-03T16:18:27;16.50;57.20
11989;DHT22;6054;50.966;7.094;2023-02-03T16:20:54;16.40;57.20
11989;DHT22;6054;50.966;7.094;2023-02-03T16:23:23;16.40;57.10
11989;DHT22;6054;50.966;7.094;2023-02-03T16:26:16;16.30;57.50
11989;DHT22;6054;50.966;7.094;2023-02-03T16:28:54;16.20;57.80